Indianapolis, IN

12:22 PM EDT on July 29, 2015 (GMT -0400)
North Fountain Square | | Change Station
CLOSE
Current Station
Personal Weather Station
Location: Indianapolis, IN
Elevation: 738 ft
Nearby Weather Stations

Elev 738 ft 39.76 °N, 86.14 °W | Updated 9 seconds ago

Mostly Cloudy
Mostly Cloudy
89.4 °F
Feels Like 86 °F
N
0.0
Wind Variable Wind from West
Gusts 0.0 mph

Today
High -- | Low -- °F
--% Chance of Precip.
Yesterday
High -- | Low -- °F
Precip. -- in
6:40 AM 9:00 PM
Waxing Gibbous, 96% visible
Pressure 29.95 in
Visibility 10.0 miles
Clouds Scattered Clouds 4500 ft
Scattered Clouds 5500 ft
Mostly Cloudy 25000 ft
Heat Index 86 °F
Dew Point 47 °F
Humidity 23%
Rainfall 0.00 in
Snow Depth Not available.
UV 5 out of 12
Pollen 5.90 out of 12
Air Quality Not available.
Flu Activity Not available.
METAR KIND 291554Z 25006KT 10SM SCT045 SCT055 BKN250 30/22 A2998 RMK AO2 SLP142 T03000222

More Conditions Fewer Conditions

Pressure 29.95 in
Visibility 10.0 miles
Clouds Scattered Clouds 4500 ft
Scattered Clouds 5500 ft
Mostly Cloudy 25000 ft
Heat Index 86 °F
Dew Point 47 °F
Humidity 23%
Rainfall 0.00 in
Snow Depth Not available.
UV 5 out of 12
Pollen 5.90 out of 12
Air Quality Not available.
Flu Activity Not available.
METAR KIND 291554Z 25006KT 10SM SCT045 SCT055 BKN250 30/22 A2998 RMK AO2 SLP142 T03000222

More Conditions Fewer Conditions

10-Day Weather Forecast

×

Almanac

Astronomy

Jul. 29, 2015 Rise Set
Actual Time
Civil Twilight
Nautical Twilight
Astronomical Twilight
Moon
Length of Visible Light
Length of Day
Tomorrow will be .
, % of the Moon is Illuminated

Today's Extremes

State Highs State Lows

Community

WunderPhotos

Upload Photos

1,842,126 photos uploaded!

WunderBlogs® & News

Nearby

Air Quality

  Air Quality AQ Index Pollutant
Not available.

Snow Depth

Station Depth Elevation

Earthquake Activity

City Distance Mag. Time & Date
Minimum magnitude displayed is 2.5.

Coastal Water Temperatures

Place Temperature

Stations

Nearby Weather Stations

Station Location Temp. Windchill Dew Point Humidity Wind Precip. Elev Updated Type